createdAt,value
2019-03-21T00:02:01.411Z,7.07
2019-03-21T00:04:31.944Z,7.13
2019-03-21T00:07:02.391Z,7.30
2019-03-21T00:09:33.129Z,7.93
2019-03-21T00:12:07.909Z,7.43
2019-03-21T00:14:50.672Z,6.80
2019-03-21T00:17:23.804Z,6.17
2019-03-21T00:19:54.249Z,6.83
2019-03-21T00:22:24.750Z,6.63
2019-03-21T00:24:55.255Z,6.87
2019-03-21T00:27:25.700Z,7.00
2019-03-21T00:29:56.160Z,6.73
2019-03-21T00:32:26.655Z,6.33
2019-03-21T00:34:57.189Z,6.77
2019-03-21T00:37:29.262Z,6.57
2019-03-21T00:39:59.690Z,6.50
2019-03-21T00:42:30.219Z,6.17
2019-03-21T00:45:00.669Z,6.17
2019-03-21T00:47:31.114Z,6.47
2019-03-21T00:50:01.549Z,7.10
2019-03-21T00:52:31.960Z,6.83
2019-03-21T00:55:02.351Z,6.13
2019-03-21T00:57:32.953Z,6.47
2019-03-21T01:00:03.410Z,6.30
2019-03-21T01:02:34.891Z,6.23
2019-03-21T01:05:05.673Z,6.63
2019-03-21T01:07:36.092Z,6.40
2019-03-21T01:10:08.925Z,5.93
2019-03-21T01:12:39.359Z,6.10
2019-03-21T01:15:10.227Z,6.33
2019-03-21T01:17:41.625Z,5.40
2019-03-21T01:20:13.949Z,6.00
2019-03-21T01:22:44.427Z,6.27
2019-03-21T01:25:24.254Z,6.10
2019-03-21T01:27:54.707Z,6.07
2019-03-21T01:30:25.188Z,6.50
2019-03-21T01:32:55.009Z,6.20
2019-03-21T01:35:25.466Z,6.17
2019-03-21T01:37:56.123Z,6.23
2019-03-21T01:40:27.714Z,5.67
2019-03-21T01:42:58.202Z,6.10
2019-03-21T01:45:28.780Z,5.80
2019-03-21T01:47:59.377Z,6.23
2019-03-21T01:50:30.317Z,5.70
2019-03-21T01:53:00.663Z,6.13
2019-03-21T01:55:31.118Z,6.10
2019-03-21T01:58:01.549Z,5.83
2019-03-21T02:00:34.408Z,6.47
2019-03-21T02:03:05.132Z,6.10
2019-03-21T02:05:35.564Z,5.93
2019-03-21T02:08:06.429Z,6.07
2019-03-21T02:10:36.858Z,5.50
2019-03-21T02:13:07.308Z,6.03
2019-03-21T02:15:38.034Z,6.00
2019-03-21T02:18:09.725Z,6.13
2019-03-21T02:20:40.159Z,6.20
2019-03-21T02:23:10.609Z,6.60
2019-03-21T02:25:41.071Z,6.20
2019-03-21T02:28:11.582Z,6.77
2019-03-21T02:30:42.108Z,6.87
2019-03-21T02:33:24.483Z,6.43
2019-03-21T02:35:54.906Z,6.10
2019-03-21T02:38:25.346Z,6.53
2019-03-21T02:40:56.088Z,7.13
2019-03-21T02:43:26.587Z,6.47
2019-03-21T02:45:57.004Z,6.80
2019-03-21T02:48:27.466Z,6.70
2019-03-21T02:50:57.907Z,6.93
2019-03-21T02:53:28.342Z,6.60
2019-03-21T02:56:00.041Z,6.43
2019-03-21T02:58:30.530Z,6.30
2019-03-21T03:01:01.055Z,6.20
2019-03-21T03:03:31.483Z,6.50
2019-03-21T03:06:01.994Z,6.30
2019-03-21T03:08:33.508Z,7.10
2019-03-21T03:11:04.448Z,6.13
2019-03-21T03:13:35.068Z,6.43
2019-03-21T03:16:05.712Z,6.13
2019-03-21T03:18:36.167Z,5.70
2019-03-21T03:21:06.615Z,6.37
2019-03-21T03:23:37.054Z,5.87
2019-03-21T03:26:08.045Z,6.30
2019-03-21T03:28:38.461Z,6.23
2019-03-21T03:31:08.920Z,6.30
2019-03-21T03:33:39.407Z,5.90
2019-03-21T03:36:09.929Z,5.83
2019-03-21T03:38:40.354Z,6.30
2019-03-21T03:41:11.489Z,5.83
2019-03-21T03:43:41.985Z,6.17
2019-03-21T03:46:12.420Z,6.00
2019-03-21T03:48:43.080Z,5.93
2019-03-21T03:51:13.638Z,5.93
2019-03-21T03:53:44.323Z,6.20
2019-03-21T03:56:14.882Z,5.77
2019-03-21T03:58:46.318Z,6.13
2019-03-21T04:01:16.803Z,6.57
2019-03-21T04:03:47.325Z,6.20
2019-03-21T04:06:17.822Z,6.10
2019-03-21T04:08:48.426Z,5.57
2019-03-21T04:11:18.929Z,5.80
2019-03-21T04:13:49.377Z,5.60
2019-03-21T04:16:20.012Z,5.83
2019-03-21T04:18:50.440Z,5.80
2019-03-21T04:21:21.022Z,6.00
2019-03-21T04:23:51.437Z,5.93
2019-03-21T04:26:27.205Z,5.77
2019-03-21T04:28:57.618Z,6.43
2019-03-21T04:31:28.058Z,5.77
2019-03-21T04:34:00.190Z,5.87
2019-03-21T04:36:30.607Z,5.90
2019-03-21T04:39:01.068Z,6.10
2019-03-21T04:41:32.949Z,6.20
2019-03-21T04:44:03.369Z,5.53
2019-03-21T04:46:33.794Z,6.20
2019-03-21T04:49:04.417Z,5.77
2019-03-21T04:51:34.865Z,5.17
2019-03-21T04:54:05.373Z,5.63
2019-03-21T04:56:36.084Z,6.10
2019-03-21T04:59:07.686Z,6.23
2019-03-21T05:01:38.200Z,5.70
2019-03-21T05:04:08.722Z,6.07
2019-03-21T05:06:39.145Z,6.23
2019-03-21T05:09:13.209Z,5.97
2019-03-21T05:11:43.732Z,6.07
2019-03-21T05:14:14.242Z,6.40
2019-03-21T05:16:44.795Z,5.90
2019-03-21T05:19:15.204Z,5.83
2019-03-21T05:21:47.082Z,6.20
2019-03-21T05:24:17.500Z,5.90
2019-03-21T05:26:47.942Z,6.30
2019-03-21T05:29:18.303Z,6.73
2019-03-21T05:31:48.819Z,6.10
2019-03-21T05:34:19.265Z,6.20
2019-03-21T05:36:50.531Z,6.57
2019-03-21T05:39:21.107Z,6.17
2019-03-21T05:41:51.555Z,5.70
2019-03-21T05:44:31.000Z,5.93
2019-03-21T05:47:01.373Z,6.27
2019-03-21T05:49:31.847Z,6.40
2019-03-21T05:52:02.271Z,6.30
2019-03-21T05:54:32.699Z,6.60
2019-03-21T05:57:03.243Z,6.50
2019-03-21T05:59:33.758Z,6.60
2019-03-21T06:02:04.498Z,6.13
2019-03-21T06:04:34.969Z,6.43
2019-03-21T06:07:19.039Z,6.97
2019-03-21T06:09:49.542Z,6.77
2019-03-21T06:12:20.166Z,6.60
2019-03-21T06:14:57.084Z,6.73
2019-03-21T06:17:29.804Z,6.43
2019-03-21T06:20:14.669Z,6.20
2019-03-21T06:23:26.271Z,6.67
2019-03-21T06:26:19.765Z,6.30
2019-03-21T06:28:50.234Z,6.17
2019-03-21T06:31:20.582Z,6.60
2019-03-21T06:33:51.055Z,6.37
2019-03-21T06:36:21.412Z,6.30
2019-03-21T06:38:51.851Z,5.60
2019-03-21T06:41:22.346Z,6.17
2019-03-21T06:43:52.955Z,5.83
2019-03-21T06:46:23.399Z,6.13
2019-03-21T06:48:53.820Z,5.53
2019-03-21T06:51:24.247Z,5.63
2019-03-21T06:53:54.719Z,5.53
2019-03-21T06:56:25.145Z,6.20
2019-03-21T06:58:55.575Z,5.77
2019-03-21T07:01:26.125Z,6.20
2019-03-21T07:04:06.647Z,5.90
2019-03-21T07:06:28.775Z,6.40
2019-03-21T07:08:59.234Z,6.13
2019-03-21T07:11:29.664Z,5.60
2019-03-21T07:14:00.067Z,6.47
2019-03-21T07:16:30.487Z,5.97
2019-03-21T07:19:01.141Z,6.30
2019-03-21T07:21:31.563Z,5.60
2019-03-21T07:24:02.124Z,5.87
2019-03-21T07:26:32.583Z,5.93
2019-03-21T07:29:03.012Z,6.00
2019-03-21T07:31:33.434Z,5.17
2019-03-21T07:34:05.741Z,6.23
2019-03-21T07:36:37.180Z,5.50
2019-03-21T07:39:08.620Z,5.43
2019-03-21T07:41:39.147Z,5.30
2019-03-21T07:44:09.584Z,5.20
2019-03-21T07:46:40.007Z,5.40
2019-03-21T07:49:10.538Z,5.10
2019-03-21T07:51:41.068Z,5.13
2019-03-21T07:54:11.545Z,5.00
2019-03-21T07:56:42.069Z,5.00
2019-03-21T07:59:12.496Z,4.60
2019-03-21T08:01:42.939Z,4.63
2019-03-21T08:04:13.694Z,4.23
2019-03-21T08:06:44.229Z,4.63
2019-03-21T08:09:14.663Z,4.40
2019-03-21T08:11:45.185Z,4.40
2019-03-21T08:14:15.614Z,4.03
2019-03-21T08:16:46.039Z,4.20
2019-03-21T08:19:16.538Z,4.43
2019-03-21T08:21:47.075Z,4.17
2019-03-21T08:24:17.494Z,3.90
2019-03-21T08:26:47.840Z,3.57
2019-03-21T08:29:18.297Z,4.37
2019-03-21T08:31:48.744Z,4.17
2019-03-21T08:34:19.126Z,4.00
2019-03-21T08:36:49.622Z,3.97
2019-03-21T08:39:20.048Z,4.00
2019-03-21T08:41:50.647Z,3.80
2019-03-21T08:44:21.150Z,3.87
2019-03-21T08:46:51.504Z,3.60
2019-03-21T08:49:22.422Z,3.20
2019-03-21T08:51:53.900Z,3.50
2019-03-21T08:54:24.343Z,3.33
2019-03-21T08:56:54.786Z,3.63
2019-03-21T08:59:25.231Z,3.83
2019-03-21T09:01:55.675Z,3.50
2019-03-21T09:04:26.109Z,3.33
2019-03-21T09:06:56.730Z,3.50
2019-03-21T09:09:27.134Z,4.10
2019-03-21T09:11:57.647Z,3.60
2019-03-21T09:14:28.021Z,3.97
2019-03-21T09:16:58.583Z,3.90
2019-03-21T09:19:29.378Z,3.80
2019-03-21T09:21:59.893Z,3.60
2019-03-21T09:24:30.439Z,4.20
2019-03-21T09:27:00.894Z,3.53
2019-03-21T09:29:31.330Z,4.00
2019-03-21T09:32:01.952Z,4.07
2019-03-21T09:34:32.381Z,4.20
2019-03-21T09:37:04.077Z,3.97
2019-03-21T09:39:34.643Z,3.90
2019-03-21T09:42:05.214Z,4.00
2019-03-21T09:44:35.651Z,4.10
2019-03-21T09:47:06.094Z,3.63
2019-03-21T09:49:36.459Z,4.10
2019-03-21T09:52:06.914Z,3.80
2019-03-21T09:54:37.341Z,3.93
2019-03-21T09:57:07.865Z,3.90
2019-03-21T09:59:38.316Z,3.97
2019-03-21T10:02:08.820Z,4.13
2019-03-21T10:04:39.242Z,3.67
2019-03-21T10:07:09.677Z,3.73
2019-03-21T10:09:40.155Z,3.80
2019-03-21T10:12:10.469Z,3.60
2019-03-21T10:14:40.908Z,3.93
2019-03-21T10:17:11.467Z,3.63
2019-03-21T10:19:41.981Z,3.70
2019-03-21T10:22:12.471Z,3.67
2019-03-21T10:24:42.911Z,4.03
2019-03-21T10:27:13.431Z,3.67
2019-03-21T10:29:45.110Z,4.00
2019-03-21T10:32:15.604Z,3.90
2019-03-21T10:34:46.018Z,3.20
2019-03-21T10:37:16.410Z,3.87
2019-03-21T10:39:47.001Z,4.50
2019-03-21T10:42:17.442Z,3.47
2019-03-21T10:44:48.056Z,3.53
2019-03-21T10:47:18.494Z,3.87
2019-03-21T10:49:48.993Z,4.33
2019-03-21T10:52:19.504Z,4.00
2019-03-21T10:54:49.915Z,3.63
2019-03-21T10:57:20.344Z,4.10
2019-03-21T10:59:50.791Z,3.67
2019-03-21T11:02:21.242Z,3.60
2019-03-21T11:04:51.750Z,3.60
2019-03-21T11:07:20.233Z,3.20
2019-03-21T11:09:50.751Z,3.70
2019-03-21T11:12:21.175Z,4.00
2019-03-21T11:14:51.633Z,3.30
2019-03-21T11:17:22.074Z,3.57
2019-03-21T11:19:52.808Z,3.37
2019-03-21T11:22:23.231Z,3.70
2019-03-21T11:24:53.672Z,3.67
2019-03-21T11:27:24.222Z,3.60
2019-03-21T11:29:54.660Z,3.53
2019-03-21T11:32:25.201Z,3.67
2019-03-21T11:34:56.413Z,4.03
2019-03-21T11:37:27.890Z,4.37
2019-03-21T11:39:59.223Z,3.70
2019-03-21T11:42:29.840Z,3.70
2019-03-21T11:45:00.401Z,3.83
2019-03-21T11:47:41.410Z,3.70
2019-03-21T11:50:02.998Z,4.00
2019-03-21T11:52:33.397Z,3.77
2019-03-21T11:55:04.198Z,3.67
2019-03-21T11:57:34.612Z,4.57
2019-03-21T12:00:06.365Z,4.10
2019-03-21T12:02:36.882Z,4.20
2019-03-21T12:05:07.558Z,4.03
2019-03-21T12:07:39.202Z,3.83
2019-03-21T12:10:09.937Z,4.50
2019-03-21T12:12:40.461Z,4.03
2019-03-21T12:15:11.393Z,4.87
2019-03-21T12:17:41.903Z,4.20
2019-03-21T12:20:13.109Z,4.03
2019-03-21T12:22:43.648Z,4.40
2019-03-21T12:25:14.154Z,4.53
2019-03-21T12:27:44.595Z,3.97
2019-03-21T12:30:18.759Z,3.90
2019-03-21T12:32:49.198Z,4.00
2019-03-21T12:35:19.558Z,4.50
2019-03-21T12:37:50.015Z,4.50
2019-03-21T12:40:20.456Z,4.40
2019-03-21T12:42:50.990Z,4.47
2019-03-21T12:45:21.412Z,4.30
2019-03-21T12:47:51.845Z,4.87
2019-03-21T12:50:22.491Z,4.00
2019-03-21T12:52:52.942Z,4.20
2019-03-21T12:55:24.439Z,4.17
2019-03-21T12:57:54.867Z,4.37
2019-03-21T13:00:44.536Z,4.40
2019-03-21T13:03:15.094Z,4.87
2019-03-21T13:05:45.626Z,4.30
2019-03-21T13:08:16.188Z,4.70
2019-03-21T13:10:46.738Z,4.80
2019-03-21T13:13:17.183Z,4.17
2019-03-21T13:15:47.639Z,4.30
2019-03-21T13:18:18.102Z,4.77
2019-03-21T13:20:48.698Z,5.03
2019-03-21T13:23:19.170Z,5.17
2019-03-21T13:25:49.526Z,5.10
2019-03-21T13:28:20.035Z,5.33
2019-03-21T13:30:50.400Z,5.07
2019-03-21T13:33:20.844Z,4.70
2019-03-21T13:35:51.313Z,5.40
2019-03-21T13:38:21.692Z,4.67
2019-03-21T13:40:52.152Z,4.50
2019-03-21T13:43:22.576Z,5.23
2019-03-21T13:45:53.089Z,4.23
2019-03-21T13:48:23.524Z,4.93
2019-03-21T13:50:54.196Z,4.73
2019-03-21T13:53:24.637Z,5.40
2019-03-21T13:55:55.128Z,5.60
2019-03-21T13:58:25.536Z,4.93
2019-03-21T14:00:56.127Z,4.77
2019-03-21T14:03:26.543Z,4.57
2019-03-21T14:05:56.959Z,4.50
2019-03-21T14:08:27.457Z,4.50
2019-03-21T14:10:57.882Z,4.27
2019-03-21T14:13:28.239Z,4.87
2019-03-21T14:15:58.661Z,4.87
2019-03-21T14:18:30.128Z,4.80
2019-03-21T14:21:00.670Z,4.90
2019-03-21T14:23:42.484Z,4.60
2019-03-21T14:26:03.353Z,4.70
2019-03-21T14:28:33.802Z,4.80
2019-03-21T14:31:04.310Z,4.53
2019-03-21T14:33:34.794Z,4.53
2019-03-21T14:36:05.787Z,4.70
2019-03-21T14:38:36.333Z,4.73
2019-03-21T14:41:06.985Z,4.97
2019-03-21T14:43:37.435Z,5.07
2019-03-21T14:46:07.893Z,5.10
2019-03-21T14:48:39.236Z,4.60
2019-03-21T14:51:09.797Z,5.00
2019-03-21T14:53:40.109Z,4.73
2019-03-21T14:56:10.559Z,5.20
2019-03-21T14:58:41.000Z,5.07
2019-03-21T15:01:11.430Z,5.07
2019-03-21T15:03:41.930Z,5.00
2019-03-21T15:06:12.376Z,5.43
2019-03-21T15:08:42.879Z,5.33
2019-03-21T15:11:27.624Z,5.53
2019-03-21T15:13:45.455Z,5.90
2019-03-21T15:16:15.997Z,5.50
2019-03-21T15:18:47.335Z,5.30
2019-03-21T15:21:18.252Z,4.83
2019-03-21T15:23:58.744Z,5.37
2019-03-21T15:26:20.817Z,5.30
2019-03-21T15:28:51.342Z,5.47
2019-03-21T15:31:21.946Z,5.37
2019-03-21T15:33:52.500Z,5.77
2019-03-21T15:36:23.007Z,5.30
2019-03-21T15:38:53.484Z,5.33
2019-03-21T15:41:23.973Z,5.30
2019-03-21T15:43:54.422Z,5.57
2019-03-21T15:46:24.867Z,5.50
2019-03-21T15:48:55.311Z,5.20
2019-03-21T15:51:25.940Z,5.37
2019-03-21T15:53:56.804Z,5.60
2019-03-21T15:56:27.127Z,5.50
2019-03-21T15:58:57.567Z,5.13
2019-03-21T16:01:28.028Z,5.27
2019-03-21T16:03:58.448Z,5.03
2019-03-21T16:06:28.939Z,5.53
2019-03-21T16:08:59.370Z,5.43
2019-03-21T16:11:29.806Z,5.43
2019-03-21T16:14:00.309Z,5.17
2019-03-21T16:16:30.751Z,5.63
2019-03-21T16:19:01.191Z,5.80
2019-03-21T16:21:32.164Z,5.37
2019-03-21T16:24:05.296Z,5.33
2019-03-21T16:26:36.811Z,5.50
2019-03-21T16:29:06.810Z,5.53
2019-03-21T16:31:37.334Z,5.13
2019-03-21T16:34:07.784Z,4.77
2019-03-21T16:36:38.262Z,5.70
2019-03-21T16:39:09.203Z,5.30
2019-03-21T16:41:39.654Z,5.10
2019-03-21T16:44:10.160Z,5.20
2019-03-21T16:46:40.668Z,4.93
2019-03-21T16:49:11.121Z,4.97
2019-03-21T16:51:41.559Z,5.27
2019-03-21T16:54:17.122Z,5.10
2019-03-21T16:56:44.303Z,4.93
2019-03-21T16:59:14.777Z,5.10
2019-03-21T17:01:45.204Z,5.57
2019-03-21T17:04:15.638Z,4.93
2019-03-21T17:06:46.009Z,5.77
2019-03-21T17:09:16.457Z,5.03
2019-03-21T17:11:46.967Z,5.57
2019-03-21T17:14:17.390Z,5.30
2019-03-21T17:16:47.860Z,5.63
2019-03-21T17:19:18.319Z,6.10
2019-03-21T17:21:49.274Z,5.73
2019-03-21T17:24:28.703Z,5.40
2019-03-21T17:26:52.003Z,5.97
2019-03-21T17:29:23.517Z,6.20
2019-03-21T17:31:53.974Z,6.17
2019-03-21T17:34:24.504Z,5.73
2019-03-21T17:36:54.942Z,5.97
2019-03-21T17:39:25.433Z,6.27
2019-03-21T17:41:55.958Z,5.33
2019-03-21T17:44:26.326Z,5.80
2019-03-21T17:46:56.761Z,5.87
2019-03-21T17:49:27.264Z,5.50
2019-03-21T17:51:57.708Z,5.50
2019-03-21T17:54:28.160Z,5.90
2019-03-21T17:56:58.603Z,6.37
2019-03-21T17:59:29.129Z,6.13
2019-03-21T18:01:59.754Z,6.00
2019-03-21T18:04:30.267Z,5.67
2019-03-21T18:07:00.722Z,6.60
2019-03-21T18:09:32.163Z,5.90
2019-03-21T18:12:02.763Z,6.80
2019-03-21T18:14:33.243Z,6.33
2019-03-21T18:17:04.907Z,6.00
2019-03-21T18:19:35.431Z,6.07
2019-03-21T18:22:06.063Z,6.03
2019-03-21T18:24:36.559Z,6.77
2019-03-21T18:27:07.061Z,7.77
2019-03-21T18:29:37.433Z,7.43
2019-03-21T18:32:07.871Z,7.37
2019-03-21T18:34:38.323Z,7.93
2019-03-21T18:37:08.768Z,8.63
2019-03-21T18:39:40.275Z,8.40
2019-03-21T18:42:11.096Z,7.43
2019-03-21T18:44:41.468Z,11.53
2019-03-21T18:47:11.906Z,7.80
2019-03-21T18:49:43.415Z,11.80
2019-03-21T18:52:13.996Z,7.10
2019-03-21T18:54:44.435Z,7.30
2019-03-21T18:57:14.890Z,8.67
2019-03-21T18:59:45.402Z,7.40
2019-03-21T19:02:15.945Z,8.10
2019-03-21T19:04:46.365Z,7.80
2019-03-21T19:07:16.828Z,7.77
2019-03-21T19:09:47.335Z,8.43
2019-03-21T19:12:17.715Z,7.20
2019-03-21T19:14:48.381Z,6.97
2019-03-21T19:17:18.821Z,6.57
2019-03-21T19:19:49.265Z,5.93
2019-03-21T19:22:19.853Z,6.37
2019-03-21T19:24:50.290Z,7.13
2019-03-21T19:27:20.715Z,6.63
2019-03-21T19:29:51.332Z,6.80
2019-03-21T19:32:21.755Z,6.30
2019-03-21T19:34:52.180Z,6.80
2019-03-21T19:37:22.605Z,7.77
2019-03-21T19:39:53.037Z,7.07
2019-03-21T19:42:23.508Z,6.43
2019-03-21T19:44:54.039Z,6.53
2019-03-21T19:47:30.225Z,7.03
2019-03-21T19:49:56.623Z,6.27
2019-03-21T19:52:27.146Z,6.73
2019-03-21T19:54:57.596Z,6.23
2019-03-21T19:57:29.830Z,7.53
2019-03-21T20:00:01.204Z,7.10
2019-03-21T20:02:31.767Z,8.43
2019-03-21T20:05:02.344Z,9.30
2019-03-21T20:07:32.882Z,11.03
2019-03-21T20:10:03.467Z,10.00
2019-03-21T20:12:34.739Z,10.23
2019-03-21T20:15:06.592Z,8.40
2019-03-21T20:17:38.197Z,7.40
2019-03-21T20:20:09.988Z,8.40
2019-03-21T20:22:40.723Z,7.20
2019-03-21T20:25:11.802Z,7.37
2019-03-21T20:27:42.355Z,6.57
2019-03-21T20:30:14.987Z,6.90
2019-03-21T20:32:45.491Z,6.60
2019-03-21T20:35:16.524Z,7.17
2019-03-21T20:37:47.430Z,6.90
2019-03-21T20:40:18.671Z,7.63
2019-03-21T20:42:49.185Z,8.60
2019-03-21T20:45:21.310Z,11.13
2019-03-21T20:47:51.764Z,8.90
2019-03-21T20:50:22.261Z,8.87
2019-03-21T20:52:52.859Z,8.70
2019-03-21T20:55:23.296Z,8.83
2019-03-21T20:57:53.762Z,8.07
2019-03-21T21:00:24.868Z,7.20
2019-03-21T21:02:55.377Z,7.50
2019-03-21T21:05:25.949Z,7.60
2019-03-21T21:07:56.488Z,8.67
2019-03-21T21:10:26.847Z,7.67
2019-03-21T21:12:57.383Z,7.33
2019-03-21T21:15:27.742Z,6.83
2019-03-21T21:17:58.138Z,6.33
2019-03-21T21:20:28.647Z,7.07
2019-03-21T21:22:59.552Z,6.60
2019-03-21T21:25:30.063Z,6.63
2019-03-21T21:28:00.493Z,7.27
2019-03-21T21:30:30.999Z,7.00
2019-03-21T21:33:01.445Z,6.60
2019-03-21T21:35:31.880Z,6.50
2019-03-21T21:38:02.373Z,6.00
2019-03-21T21:40:34.303Z,6.07
2019-03-21T21:43:04.815Z,6.03
2019-03-21T21:45:35.223Z,6.10
2019-03-21T21:48:05.867Z,6.00
2019-03-21T21:50:36.566Z,5.20
2019-03-21T21:53:07.015Z,5.80
2019-03-21T21:55:37.563Z,5.73
2019-03-21T21:58:08.216Z,6.27
2019-03-21T22:00:38.698Z,5.53
2019-03-21T22:03:09.253Z,5.40
2019-03-21T22:05:39.864Z,5.40
2019-03-21T22:08:10.531Z,6.40
2019-03-21T22:10:41.076Z,5.83
2019-03-21T22:13:11.453Z,5.57
2019-03-21T22:15:42.093Z,5.83
2019-03-21T22:18:12.733Z,5.60
2019-03-21T22:20:43.284Z,5.13
2019-03-21T22:23:14.376Z,5.17
2019-03-21T22:25:44.877Z,4.97
2019-03-21T22:28:15.485Z,5.43
2019-03-21T22:30:46.016Z,5.30
2019-03-21T22:33:16.534Z,5.27
2019-03-21T22:35:46.984Z,5.50
2019-03-21T22:38:17.494Z,5.77
2019-03-21T22:40:47.974Z,5.50
2019-03-21T22:43:18.349Z,5.53
2019-03-21T22:45:48.886Z,5.70
2019-03-21T22:48:19.419Z,6.07
2019-03-21T22:50:49.867Z,7.50
2019-03-21T22:53:20.307Z,5.93
2019-03-21T22:55:50.767Z,6.23
2019-03-21T22:58:31.471Z,5.90
2019-03-21T23:00:54.818Z,5.20
2019-03-21T23:03:25.548Z,5.07
2019-03-21T23:05:56.145Z,5.60
2019-03-21T23:08:26.713Z,6.37
2019-03-21T23:10:57.206Z,6.60
2019-03-21T23:13:27.651Z,6.23
2019-03-21T23:15:58.177Z,6.07
2019-03-21T23:18:28.765Z,6.17
2019-03-21T23:20:59.224Z,5.80
2019-03-21T23:23:30.232Z,5.47
2019-03-21T23:26:00.613Z,5.63
2019-03-21T23:28:31.119Z,5.00
2019-03-21T23:31:01.594Z,5.00
2019-03-21T23:33:32.024Z,4.90
2019-03-21T23:36:02.478Z,4.83
2019-03-21T23:38:32.933Z,5.00
2019-03-21T23:41:03.563Z,4.80
2019-03-21T23:43:34.005Z,4.87
2019-03-21T23:46:04.556Z,4.77
2019-03-21T23:48:35.087Z,5.00
2019-03-21T23:51:05.513Z,5.63
2019-03-21T23:53:35.961Z,6.00
2019-03-21T23:56:06.571Z,5.47
2019-03-21T23:58:37.101Z,5.40
